Time;durP1;ratioP1;P1;durP2;ratioP2;P2;SDS_P1;SDS_P2;PMS_P1;PMS_P2;Temp;Humidity;BMP_temperature;BMP_pressure;BME280_temperature;BME280_humidity;BME280_pressure;Samples;Min_cycle;Max_cycle;Signal;HPM_P1;HPM_P2
2022/01/01 00:01:55;;;;;;;152.55;61.70;;;;;;;11.68;100.00;102304.00;5017306;28;20099;-52
2022/01/01 00:04:20;;;;;;;126.60;51.35;;;;;;;11.69;100.00;102307.53;5019391;28;20047;-51
2022/01/01 00:06:46;;;;;;;133.85;48.70;;;;;;;11.69;100.00;102297.69;5017965;28;20048;-51
2022/01/01 00:09:11;;;;;;;131.10;48.13;;;;;;;11.69;100.00;102308.38;5019913;28;20037;-51
2022/01/01 00:11:36;;;;;;;116.80;46.75;;;;;;;11.68;100.00;102314.72;5018061;28;20300;-51
2022/01/01 00:14:02;;;;;;;132.38;51.17;;;;;;;11.70;100.00;102314.59;5045125;28;20045;-51
2022/01/01 00:16:27;;;;;;;128.30;51.17;;;;;;;11.67;100.00;102312.16;5055079;28;20016;-52
2022/01/01 00:18:52;;;;;;;140.43;51.33;;;;;;;11.70;100.00;102327.97;5058663;28;20529;-52
2022/01/01 00:21:17;;;;;;;119.40;41.08;;;;;;;11.70;100.00;102323.44;5061186;28;20040;-52
2022/01/01 00:23:43;;;;;;;165.27;57.88;;;;;;;11.69;100.00;102321.78;5061034;28;20021;-51
2022/01/01 00:26:08;;;;;;;125.20;41.25;;;;;;;11.74;100.00;102326.69;5061489;28;20035;-52
2022/01/01 00:28:33;;;;;;;172.85;58.80;;;;;;;11.73;100.00;102325.03;5056547;28;20040;-53
2022/01/01 00:30:59;;;;;;;131.65;43.00;;;;;;;11.73;100.00;102325.88;5044279;28;20031;-50
2022/01/01 00:33:25;;;;;;;172.05;65.53;;;;;;;11.73;100.00;102320.50;5052152;28;20020;-52
2022/01/01 00:35:51;;;;;;;193.60;72.00;;;;;;;11.71;100.00;102326.97;5048913;28;20078;-53
2022/01/01 00:38:16;;;;;;;133.90;48.13;;;;;;;11.74;100.00;102324.03;5049475;28;20025;-50
2022/01/01 00:40:41;;;;;;;167.10;60.95;;;;;;;11.74;100.00;102318.69;5050741;28;20138;-53
2022/01/01 00:43:07;;;;;;;114.40;38.70;;;;;;;11.76;100.00;102322.06;5048725;28;20039;-49
2022/01/01 00:45:32;;;;;;;122.05;40.22;;;;;;;11.75;100.00;102325.75;5026856;28;20024;-51
2022/01/01 00:47:57;;;;;;;107.07;33.13;;;;;;;11.80;100.00;102315.47;5046811;28;20394;-51
2022/01/01 00:50:23;;;;;;;83.75;31.83;;;;;;;11.81;100.00;102316.31;5051007;28;20032;-53
2022/01/01 00:52:50;;;;;;;97.90;32.53;;;;;;;11.80;100.00;102304.78;5045387;28;20543;-52
2022/01/01 00:55:15;;;;;;;90.55;30.55;;;;;;;11.77;100.00;102297.84;5049818;28;20319;-52
2022/01/01 00:57:40;;;;;;;102.05;35.28;;;;;;;11.78;100.00;102317.44;5051339;28;20542;-52
2022/01/01 01:00:07;;;;;;;85.28;29.73;;;;;;;11.79;100.00;102318.28;5044905;28;20052;-52
2022/01/01 01:02:32;;;;;;;94.97;28.55;;;;;;;11.78;100.00;102312.09;5039118;28;20033;-51
2022/01/01 01:04:58;;;;;;;90.85;29.60;;;;;;;11.76;100.00;102311.34;5043067;28;20039;-52
2022/01/01 01:07:24;;;;;;;97.20;29.45;;;;;;;11.76;100.00;102311.34;5043483;28;20029;-53
2022/01/01 01:09:49;;;;;;;90.65;26.02;;;;;;;11.77;100.00;102307.72;5044383;28;20089;-51
2022/01/01 01:12:20;;;;;;;84.22;26.85;;;;;;;11.75;100.00;102309.69;5044594;28;20516;-53
2022/01/01 01:14:46;;;;;;;75.40;23.95;;;;;;;11.75;100.00;102310.53;5044955;28;20524;-52
2022/01/01 01:17:12;;;;;;;93.22;29.85;;;;;;;11.73;100.00;102315.16;5044130;28;20052;-52
2022/01/01 01:19:37;;;;;;;93.45;29.25;;;;;;;11.72;100.00;102315.28;5029003;28;20391;-52
2022/01/01 01:22:03;;;;;;;94.82;32.72;;;;;;;11.72;100.00;102317.97;5043866;28;20123;-53
2022/01/01 01:24:28;;;;;;;149.50;55.40;;;;;;;11.71;100.00;102319.81;5043374;28;20102;-52
2022/01/01 01:26:54;;;;;;;73.93;24.40;;;;;;;11.71;100.00;102324.28;5054893;28;20088;-52
2022/01/01 01:29:20;;;;;;;88.95;24.77;;;;;;;11.69;100.00;102335.16;5045179;28;20490;-51
2022/01/01 01:31:48;;;;;;;82.57;23.88;;;;;;;11.70;100.00;102330.63;5043195;28;20452;-52
2022/01/01 01:34:13;;;;;;;93.57;25.02;;;;;;;11.69;100.00;102327.13;5045442;28;20384;-52
2022/01/01 01:36:38;;;;;;;79.80;24.27;;;;;;;11.69;100.00;102326.25;5043237;28;20033;-51
2022/01/01 01:39:04;;;;;;;88.57;24.10;;;;;;;11.68;100.00;102325.41;5044667;28;20057;-52
2022/01/01 01:41:31;;;;;;;81.43;24.27;;;;;;;11.67;100.00;102321.03;5044166;28;20515;-52
2022/01/01 01:43:58;;;;;;;92.60;24.02;;;;;;;11.66;100.00;102329.19;5044217;28;20051;-50
2022/01/01 01:46:23;;;;;;;82.88;24.55;;;;;;;11.64;100.00;102332.00;5039987;28;20066;-54
2022/01/01 01:48:48;;;;;;;90.32;25.08;;;;;;;11.63;100.00;102342.84;5044216;28;20025;-51
2022/01/01 01:51:15;;;;;;;90.78;25.30;;;;;;;11.62;100.00;102347.34;5043480;28;20068;-52
2022/01/01 01:53:41;;;;;;;90.18;25.77;;;;;;;11.61;100.00;102347.47;5043821;28;20529;-51
2022/01/01 01:56:06;;;;;;;78.70;24.13;;;;;;;11.61;100.00;102347.47;5043980;28;20040;-51
2022/01/01 01:58:33;;;;;;;83.28;23.55;;;;;;;11.60;100.00;102357.34;5043799;28;20120;-51
2022/01/01 02:01:31;;;;;;;88.90;24.23;;;;;;;11.60;100.00;102357.34;5043515;28;20016;-51
2022/01/01 02:03:51;;;;;;;96.05;23.73;;;;;;;11.60;100.00;102351.13;5040960;28;20117;-53
2022/01/01 02:06:18;;;;;;;74.10;23.33;;;;;;;11.60;100.00;102356.50;5043421;28;20457;-52
2022/01/01 02:08:44;;;;;;;81.57;22.73;;;;;;;11.59;100.00;102350.28;5043587;28;20483;-53
2022/01/01 02:11:10;;;;;;;86.68;22.35;;;;;;;11.58;100.00;102351.28;5027482;28;20108;-51
2022/01/01 02:13:48;;;;;;;86.40;22.50;;;;;;;11.59;100.00;102352.94;5041401;28;20128;-52
2022/01/01 02:16:31;;;;;;;81.95;22.77;;;;;;;11.58;100.00;102346.75;5041836;28;20099;-51
2022/01/01 02:18:57;;;;;;;70.25;20.75;;;;;;;11.58;100.00;102349.44;5041100;28;20488;-51
2022/01/01 02:21:24;;;;;;;72.78;20.95;;;;;;;11.60;100.00;102343.94;5043196;28;20029;-52
2022/01/01 02:23:57;;;;;;;73.72;19.48;;;;;;;11.59;100.00;102336.88;5043007;28;20458;-50
2022/01/01 02:26:28;;;;;;;85.43;20.30;;;;;;;11.58;100.00;102333.38;5024680;28;20049;-48
2022/01/01 02:28:53;;;;;;;68.50;19.02;;;;;;;11.61;100.00;102344.78;5039699;28;20491;-52
2022/01/01 02:31:19;;;;;;;64.22;19.33;;;;;;;11.63;100.00;102351.72;5043258;28;20060;-51
2022/01/01 02:33:45;;;;;;;82.28;19.95;;;;;;;11.62;100.00;102344.66;5042822;28;20020;-52
2022/01/01 02:36:10;;;;;;;80.35;19.40;;;;;;;11.64;100.00;102344.53;5042789;28;20024;-51
2022/01/01 02:38:36;;;;;;;72.03;20.15;;;;;;;11.64;100.00;102340.03;5041525;28;20028;-49
2022/01/01 02:41:02;;;;;;;60.42;19.73;;;;;;;11.64;100.00;102340.03;5043596;28;20483;-51
2022/01/01 02:43:28;;;;;;;69.63;18.80;;;;;;;11.63;100.00;102329.47;5043225;28;20120;-52
2022/01/01 02:45:53;;;;;;;63.92;18.77;;;;;;;11.65;100.00;102335.53;5042857;28;20459;-51
2022/01/01 02:48:20;;;;;;;57.45;18.13;;;;;;;11.66;100.00;102331.88;5043419;28;20059;-52
2022/01/01 02:50:45;;;;;;;65.75;19.02;;;;;;;11.65;100.00;102331.03;5042834;28;20060;-51
2022/01/01 02:53:15;;;;;;;70.15;18.95;;;;;;;11.64;100.00;102320.44;5042829;28;20071;-51
2022/01/01 02:55:42;;;;;;;75.97;19.70;;;;;;;11.61;100.00;102310.88;5043139;28;20040;-52
2022/01/01 02:58:10;;;;;;;52.03;17.25;;;;;;;11.63;100.00;102313.41;5043675;28;20379;-52
2022/01/01 03:00:35;;;;;;;60.45;18.73;;;;;;;11.62;100.00;102303.69;5027159;28;20029;-51
2022/01/01 03:03:01;;;;;;;53.70;19.35;;;;;;;11.63;100.00;102305.41;5022184;28;20029;-50
2022/01/01 03:05:27;;;;;;;67.40;19.70;;;;;;;11.62;100.00;102303.69;5023576;28;20097;-52
2022/01/01 03:07:52;;;;;;;63.47;18.27;;;;;;;11.63;100.00;102300.88;5022331;28;20038;-48
2022/01/01 03:10:18;;;;;;;64.55;19.42;;;;;;;11.63;100.00;102310.75;5023096;28;20112;-51
2022/01/01 03:12:44;;;;;;;61.58;18.60;;;;;;;11.66;100.00;102305.09;5005012;28;20339;-50
2022/01/01 03:15:09;;;;;;;57.45;17.80;;;;;;;11.67;100.00;102317.50;5023447;28;20033;-49
2022/01/01 03:17:35;;;;;;;64.15;19.33;;;;;;;11.66;100.00;102313.13;5021029;28;20049;-50
2022/01/01 03:20:00;;;;;;;57.00;17.33;;;;;;;11.66;100.00;102311.31;5023171;28;20116;-48
2022/01/01 03:22:25;;;;;;;65.95;18.30;;;;;;;11.67;100.00;102310.31;5021698;28;20120;-46
2022/01/01 03:24:50;;;;;;;69.15;18.25;;;;;;;11.69;100.00;102310.19;5022810;28;20032;-49
2022/01/01 03:27:16;;;;;;;60.50;17.13;;;;;;;11.66;100.00;102308.66;5022122;28;20032;-48
2022/01/01 03:29:41;;;;;;;52.13;17.98;;;;;;;11.67;100.00;102312.16;5021483;28;20452;-50
2022/01/01 03:32:07;;;;;;;57.90;18.15;;;;;;;11.64;100.00;102304.41;5022056;28;20071;-50
2022/01/01 03:34:32;;;;;;;65.00;19.50;;;;;;;11.65;100.00;102314.97;5022105;28;20492;-47
2022/01/01 03:36:57;;;;;;;53.85;18.77;;;;;;;11.65;100.00;102306.94;5021957;28;20113;-48
2022/01/01 03:39:23;;;;;;;63.58;19.48;;;;;;;11.64;100.00;102305.22;5022883;28;20314;-47
2022/01/01 03:41:49;;;;;;;61.08;18.65;;;;;;;11.62;100.00;102309.88;5004139;28;20017;-48
2022/01/01 03:44:14;;;;;;;59.70;19.63;;;;;;;11.58;100.00;102306.63;5022418;28;20022;-49
2022/01/01 03:46:40;;;;;;;64.25;20.13;;;;;;;11.56;100.00;102305.06;5021088;28;20025;-50
2022/01/01 03:49:05;;;;;;;62.22;19.90;;;;;;;11.61;100.00;102304.66;5022420;28;20052;-49
2022/01/01 03:51:30;;;;;;;56.90;18.33;;;;;;;11.61;100.00;102296.63;5020572;28;20502;-51
2022/01/01 03:53:56;;;;;;;59.03;19.17;;;;;;;11.64;100.00;102299.88;5022269;28;20025;-51
2022/01/01 03:56:21;;;;;;;55.17;19.13;;;;;;;11.64;100.00;102299.88;5022650;28;20479;-49
2022/01/01 03:58:46;;;;;;;65.57;19.75;;;;;;;11.63;100.00;102294.69;5021869;28;20030;-50
2022/01/01 04:01:12;;;;;;;54.90;19.52;;;;;;;11.63;100.00;102290.19;5003225;28;20133;-50
2022/01/01 04:03:38;;;;;;;61.75;19.38;;;;;;;11.59;100.00;102288.72;5021914;28;20029;-50
2022/01/01 04:06:04;;;;;;;57.00;19.73;;;;;;;11.65;100.00;102308.78;5021575;28;20449;-48
2022/01/01 04:08:30;;;;;;;60.17;19.40;;;;;;;11.59;100.00;102299.44;5021273;28;20025;-50
2022/01/01 04:10:56;;;;;;;61.17;18.30;;;;;;;11.63;100.00;102305.41;5021678;28;20033;-47
2022/01/01 04:13:21;;;;;;;57.80;19.77;;;;;;;11.65;100.00;102295.41;5020592;28;20466;-50
2022/01/01 04:15:47;;;;;;;60.00;19.80;;;;;;;11.64;100.00;102293.69;5020823;28;20045;-50
2022/01/01 04:18:14;;;;;;;55.65;19.10;;;;;;;11.57;100.00;102288.88;5021218;28;20049;-48
2022/01/01 04:20:44;;;;;;;56.72;17.83;;;;;;;11.65;100.00;102293.56;5021055;28;20034;-49
2022/01/01 04:23:10;;;;;;;43.83;17.42;;;;;;;11.67;100.00;102302.28;5021234;28;20357;-50
2022/01/01 04:25:36;;;;;;;46.42;17.02;;;;;;;11.69;100.00;102291.47;5002987;28;20067;-51
2022/01/01 04:28:03;;;;;;;56.65;17.60;;;;;;;11.69;100.00;102295.00;5021639;28;20108;-48
2022/01/01 04:30:31;;;;;;;47.45;16.88;;;;;;;11.70;100.00;102302.03;5021155;28;20388;-50
2022/01/01 04:32:57;;;;;;;49.25;16.50;;;;;;;11.67;100.00;102296.94;5020876;28;20111;-47
2022/01/01 04:35:22;;;;;;;50.55;16.58;;;;;;;11.68;100.00;102300.50;5022134;28;20167;-48
2022/01/01 04:37:48;;;;;;;44.15;16.38;;;;;;;11.67;100.00;102296.09;5020173;28;20105;-50
2022/01/01 04:40:13;;;;;;;45.47;15.35;;;;;;;11.68;100.00;102300.50;5021042;28;20491;-46
2022/01/01 04:42:39;;;;;;;59.40;15.90;;;;;;;11.69;100.00;102299.50;5020895;28;20036;-46
2022/01/01 04:45:05;;;;;;;48.03;15.13;;;;;;;11.67;100.00;102299.63;5021855;28;20036;-48
2022/01/01 04:47:30;;;;;;;55.20;15.98;;;;;;;11.67;100.00;102304.97;5019825;28;20088;-49
2022/01/01 04:49:57;;;;;;;44.90;15.85;;;;;;;11.69;100.00;102304.84;4983569;28;21375;-48
2022/01/01 04:52:23;;;;;;;43.97;14.45;;;;;;;11.70;100.00;102306.56;5000889;28;20022;-49
2022/01/01 04:54:48;;;;;;;49.55;14.75;;;;;;;11.71;100.00;102294.84;5000925;28;20049;-46
2022/01/01 04:57:14;;;;;;;44.78;15.63;;;;;;;11.72;100.00;102300.06;5001833;28;20034;-50
2022/01/01 04:59:41;;;;;;;50.65;15.48;;;;;;;11.70;100.00;102304.72;5001545;28;20030;-50
2022/01/01 05:02:07;;;;;;;47.13;14.20;;;;;;;11.72;100.00;102312.63;5000561;28;20034;-50
2022/01/01 05:04:33;;;;;;;49.60;14.77;;;;;;;11.72;100.00;102315.28;5001345;28;20034;-48
2022/01/01 05:06:58;;;;;;;45.53;14.57;;;;;;;11.71;100.00;102316.25;5001089;28;20385;-50
2022/01/01 05:09:23;;;;;;;51.17;14.88;;;;;;;11.69;100.00;102313.75;5001958;28;20365;-50
2022/01/01 05:11:49;;;;;;;41.72;14.40;;;;;;;11.69;100.00;102316.41;5001080;28;20109;-48
2022/01/01 05:14:15;;;;;;;52.92;14.00;;;;;;;11.68;100.00;102317.38;5001991;28;20030;-46
2022/01/01 05:16:41;;;;;;;41.22;13.38;;;;;;;11.68;100.00;102313.88;5000340;28;20325;-50
2022/01/01 05:19:07;;;;;;;41.95;13.43;;;;;;;11.70;100.00;102319.94;5001671;28;20044;-50
2022/01/01 05:21:34;;;;;;;39.08;13.52;;;;;;;11.67;100.00;102322.88;5000418;28;20026;-49
2022/01/01 05:24:00;;;;;;;43.30;13.30;;;;;;;11.68;100.00;102319.22;5002066;28;20041;-47
2022/01/01 05:26:26;;;;;;;48.88;14.88;;;;;;;11.69;100.00;102320.91;5001026;28;20155;-46
2022/01/01 05:28:51;;;;;;;37.50;13.00;;;;;;;11.68;100.00;102325.41;5000964;28;20549;-48
2022/01/01 05:31:19;;;;;;;46.20;14.50;;;;;;;11.67;100.00;102322.88;5000012;28;20055;-46
2022/01/01 05:33:45;;;;;;;48.88;13.65;;;;;;;11.65;100.00;102325.66;5000814;28;20357;-49
2022/01/01 05:36:10;;;;;;;43.95;13.82;;;;;;;11.66;100.00;102323.84;5000735;28;20473;-49
2022/01/01 05:38:36;;;;;;;38.92;13.07;;;;;;;11.64;100.00;102320.44;5000066;28;20022;-47
2022/01/01 05:41:01;;;;;;;46.08;13.18;;;;;;;11.63;100.00;102321.44;5000934;28;20030;-51
2022/01/01 05:43:26;;;;;;;40.45;12.30;;;;;;;11.63;100.00;102321.44;5000943;28;20434;-49
2022/01/01 05:45:51;;;;;;;33.35;11.70;;;;;;;11.63;100.00;102321.44;4999737;28;20052;-49
2022/01/01 05:48:17;;;;;;;37.72;12.77;;;;;;;11.63;100.00;102316.09;4982996;28;20053;-47
2022/01/01 05:50:42;;;;;;;41.78;12.75;;;;;;;11.61;100.00;102310.00;5000361;28;20121;-51
2022/01/01 05:53:07;;;;;;;41.33;12.07;;;;;;;11.57;100.00;102314.78;5003399;28;20041;-47
2022/01/01 05:55:33;;;;;;;41.33;12.07;;;;;;;11.53;100.00;102308.84;4985786;28;20355;-47
2022/01/01 05:57:58;;;;;;;46.15;12.20;;;;;;;11.58;100.00;102306.63;5004554;28;20026;-50
2022/01/01 06:00:24;;;;;;;37.42;11.35;;;;;;;11.58;100.00;102313.81;5003916;28;20042;-48
2022/01/01 06:02:49;;;;;;;41.92;11.65;;;;;;;11.57;100.00;102296.03;5004048;28;20121;-51
2022/01/01 06:05:14;;;;;;;40.13;12.57;;;;;;;11.58;100.00;102309.28;5004486;28;20657;-47
2022/01/01 06:07:40;;;;;;;34.38;11.13;;;;;;;11.55;100.00;102301.53;5003027;28;20042;-48
2022/01/01 06:10:05;;;;;;;39.85;11.35;;;;;;;11.49;100.00;102295.84;5004368;28;20559;-49
2022/01/01 06:12:31;;;;;;;32.35;10.73;;;;;;;11.43;100.00;102296.38;5003319;28;20648;-51
2022/01/01 06:14:56;;;;;;;42.58;11.15;;;;;;;11.45;100.00;102291.75;5003856;28;20022;-46
2022/01/01 06:17:21;;;;;;;42.50;11.10;;;;;;;11.41;100.00;102290.34;5003120;28;20053;-50
2022/01/01 06:19:46;;;;;;;39.95;10.63;;;;;;;11.37;100.00;102300.41;5003647;28;20075;-50
2022/01/01 06:22:13;;;;;;;33.85;9.98;;;;;;;11.34;100.00;102306.06;5003532;28;20021;-49
2022/01/01 06:24:38;;;;;;;35.58;10.05;;;;;;;11.31;100.00;102298.28;5003991;28;20246;-51
2022/01/01 06:27:03;;;;;;;35.45;10.13;;;;;;;11.27;100.00;102302.19;5003822;28;20732;-50
2022/01/01 06:29:29;;;;;;;31.98;9.38;;;;;;;11.20;100.00;102294.69;5003878;28;20032;-50
2022/01/01 06:31:54;;;;;;;24.95;8.55;;;;;;;11.18;100.00;102309.16;5003068;28;20595;-49
2022/01/01 06:34:19;;;;;;;39.92;10.13;;;;;;;11.16;100.00;102314.63;5003997;28;20034;-46
2022/01/01 06:36:45;;;;;;;37.33;10.20;;;;;;;11.12;100.00;102309.69;5002170;28;20026;-49
2022/01/01 06:39:10;;;;;;;37.13;9.48;;;;;;;11.11;100.00;102308.81;5003977;28;20029;-50
2022/01/01 06:41:36;;;;;;;31.20;9.30;;;;;;;11.11;100.00;102314.16;5002662;28;20373;-50
2022/01/01 06:44:01;;;;;;;34.42;9.18;;;;;;;11.16;100.00;102319.13;5003653;28;20041;-51
2022/01/01 06:46:26;;;;;;;33.20;9.27;;;;;;;11.17;100.00;102294.09;5002941;28;20159;-50
2022/01/01 06:48:52;;;;;;;32.65;9.50;;;;;;;11.15;100.00;102320.09;5003579;28;20527;-48
2022/01/01 06:51:17;;;;;;;37.25;9.43;;;;;;;11.14;100.00;102313.91;5002953;28;20018;-49
2022/01/01 06:53:42;;;;;;;27.70;8.75;;;;;;;11.23;100.00;102324.81;5002469;28;20022;-46
2022/01/01 06:56:09;;;;;;;31.90;8.50;;;;;;;11.26;100.00;102322.72;5003649;28;20025;-50
2022/01/01 06:58:35;;;;;;;38.33;9.60;;;;;;;11.25;100.00;102314.84;4985000;28;20500;-46
2022/01/01 07:01:01;;;;;;;30.48;8.68;;;;;;;11.25;100.00;102313.00;4984695;28;20037;-50
2022/01/01 07:03:26;;;;;;;42.25;9.88;;;;;;;11.28;100.00;102314.59;5002731;28;20049;-49
2022/01/01 07:05:52;;;;;;;32.10;9.68;;;;;;;11.28;100.00;102325.28;5003406;28;20460;-48
2022/01/01 07:08:17;;;;;;;30.77;8.60;;;;;;;11.30;100.00;102329.53;5002191;28;20022;-50
2022/01/01 07:10:44;;;;;;;28.15;8.23;;;;;;;11.33;100.00;102334.59;5003275;28;20026;-49
2022/01/01 07:13:10;;;;;;;26.35;8.77;;;;;;;11.34;100.00;102344.34;5002967;28;20324;-48
2022/01/01 07:15:36;;;;;;;30.33;8.43;;;;;;;11.34;100.00;102344.34;5001530;28;20629;-49
2022/01/01 07:18:01;;;;;;;24.17;8.05;;;;;;;11.35;100.00;102338.03;4985133;28;20128;-49
2022/01/01 07:20:26;;;;;;;26.55;8.18;;;;;;;11.38;100.00;102328.88;5002672;28;20105;-50
2022/01/01 07:22:52;;;;;;;31.98;8.05;;;;;;;11.41;100.00;102336.66;5001575;28;20033;-46
2022/01/01 07:25:18;;;;;;;30.77;8.30;;;;;;;11.39;100.00;102331.44;5002949;28;20033;-46
2022/01/01 07:27:44;;;;;;;30.45;8.30;;;;;;;11.39;100.00;102336.78;5002151;28;20076;-46
2022/01/01 07:30:10;;;;;;;26.40;8.20;;;;;;;11.43;100.00;102340.03;5001942;28;20034;-48
2022/01/01 07:32:44;;;;;;;36.45;8.40;;;;;;;11.41;100.00;102333.97;5001884;28;20421;-49
2022/01/01 07:35:10;;;;;;;29.08;7.57;;;;;;;11.43;100.00;102337.34;5003019;28;20196;-49
2022/01/01 07:37:36;;;;;;;30.48;8.20;;;;;;;11.45;100.00;102342.59;5001054;28;20101;-50
2022/01/01 07:40:02;;;;;;;35.85;7.88;;;;;;;11.46;100.00;102345.13;5002691;28;20498;-49
2022/01/01 07:42:27;;;;;;;32.83;8.15;;;;;;;11.49;100.00;102346.69;5002460;28;20069;-50
2022/01/01 07:44:53;;;;;;;20.98;7.25;;;;;;;11.47;100.00;102362.91;5002705;28;20037;-46
2022/01/01 07:47:18;;;;;;;29.75;8.43;;;;;;;11.49;100.00;102352.91;5001627;28;20101;-48
2022/01/01 07:49:43;;;;;;;26.92;7.50;;;;;;;11.52;100.00;102358.00;5001987;28;20030;-50
2022/01/01 07:52:09;;;;;;;26.17;6.97;;;;;;;11.54;100.00;102365.88;5001764;28;20445;-49
2022/01/01 07:54:34;;;;;;;25.00;7.43;;;;;;;11.53;100.00;102367.69;5001440;28;20104;-48
2022/01/01 07:56:59;;;;;;;23.65;7.18;;;;;;;11.52;100.00;102370.50;5002181;28;20041;-49
2022/01/01 07:59:25;;;;;;;20.92;6.68;;;;;;;11.52;100.00;102376.72;5001838;28;20025;-50
2022/01/01 08:01:50;;;;;;;30.30;7.25;;;;;;;11.54;100.00;102373.91;5000192;28;20069;-49
2022/01/01 08:04:15;;;;;;;24.63;7.40;;;;;;;11.54;100.00;102372.09;5002246;28;20026;-50
2022/01/01 08:06:41;;;;;;;24.73;7.38;;;;;;;11.56;100.00;102374.63;4983136;28;20041;-49
2022/01/01 08:09:06;;;;;;;25.83;7.72;;;;;;;11.55;100.00;102367.56;5002549;28;20132;-47
2022/01/01 08:11:31;;;;;;;28.27;7.78;;;;;;;11.56;100.00;102371.97;5001592;28;20370;-49
2022/01/01 08:13:57;;;;;;;27.13;6.93;;;;;;;11.56;100.00;102369.28;5001709;28;20048;-48
2022/01/01 08:16:22;;;;;;;27.35;6.93;;;;;;;11.55;100.00;102364.91;5001334;28;20029;-47
2022/01/01 08:18:48;;;;;;;20.92;6.53;;;;;;;11.57;100.00;102374.50;5001181;28;20042;-47
2022/01/01 08:21:13;;;;;;;26.08;7.38;;;;;;;11.58;100.00;102376.19;5006477;28;20057;-51
2022/01/01 08:23:39;;;;;;;27.45;7.10;;;;;;;11.57;100.00;102362.94;5010866;28;20075;-48
2022/01/01 08:26:04;;;;;;;25.65;7.15;;;;;;;11.63;100.00;102370.47;5012502;28;20033;-46
2022/01/01 08:28:30;;;;;;;21.85;7.10;;;;;;;11.64;100.00;102374.81;5011225;28;20061;-46
2022/01/01 08:30:56;;;;;;;25.08;7.68;;;;;;;11.61;100.00;102364.41;5014476;28;20051;-47
2022/01/01 08:33:21;;;;;;;25.83;7.22;;;;;;;11.65;100.00;102367.66;5021435;28;20097;-48
2022/01/01 08:35:47;;;;;;;32.65;7.45;;;;;;;11.65;100.00;102363.13;5020617;28;20032;-48
2022/01/01 08:38:13;;;;;;;26.27;7.22;;;;;;;11.66;100.00;102363.97;5020077;28;20022;-48
2022/01/01 08:40:39;;;;;;;30.20;7.07;;;;;;;11.66;100.00;102356.81;5010463;28;20025;-49
2022/01/01 08:43:05;;;;;;;28.67;8.57;;;;;;;11.62;100.00;102365.22;5011372;28;20038;-49
2022/01/01 08:45:30;;;;;;;28.20;7.80;;;;;;;11.61;100.00;102364.41;5007987;28;20064;-50
2022/01/01 08:47:55;;;;;;;23.77;7.40;;;;;;;11.58;100.00;102362.81;5011257;28;20016;-52
2022/01/01 08:50:21;;;;;;;29.73;7.18;;;;;;;11.61;100.00;102374.22;5010865;28;20033;-50
2022/01/01 08:52:46;;;;;;;24.48;8.15;;;;;;;11.59;100.00;102363.66;5008735;28;20437;-51
2022/01/01 08:55:12;;;;;;;24.40;7.93;;;;;;;11.54;100.00;102369.41;5011485;28;20563;-51
2022/01/01 08:57:37;;;;;;;26.88;7.45;;;;;;;11.53;100.00;102374.88;5009319;28;20108;-50
2022/01/01 09:00:08;;;;;;;29.42;7.70;;;;;;;11.51;100.00;102374.19;5009447;28;20017;-49
2022/01/01 09:02:34;;;;;;;22.10;8.20;;;;;;;11.51;100.00;102366.16;5007765;28;20136;-50
2022/01/01 09:05:00;;;;;;;27.05;8.30;;;;;;;11.51;100.00;102360.81;5011582;28;20105;-46
2022/01/01 09:07:28;;;;;;;21.85;7.78;;;;;;;11.48;100.00;102364.56;5007459;28;20033;-49
2022/01/01 09:09:55;;;;;;;30.92;9.23;;;;;;;11.48;100.00;102359.22;5009962;28;20124;-48
2022/01/01 09:12:20;;;;;;;23.60;8.02;;;;;;;11.45;100.00;102359.47;5009356;28;20564;-51
2022/01/01 09:14:45;;;;;;;25.33;8.40;;;;;;;11.46;100.00;102360.34;5009222;28;20093;-50
2022/01/01 09:17:11;;;;;;;22.42;8.32;;;;;;;11.43;100.00;102345.38;5010678;28;20496;-52
2022/01/01 09:19:36;;;;;;;25.02;8.93;;;;;;;11.48;100.00;102353.88;5009048;28;20081;-52
2022/01/01 09:22:02;;;;;;;32.80;9.27;;;;;;;11.46;100.00;102349.66;5009342;28;20049;-52
2022/01/01 09:24:27;;;;;;;29.90;8.70;;;;;;;11.47;100.00;102348.66;5010307;28;20334;-49
2022/01/01 09:26:52;;;;;;;26.92;9.57;;;;;;;11.46;100.00;102345.13;5011915;28;20053;-51
2022/01/01 09:29:18;;;;;;;25.85;8.85;;;;;;;11.49;100.00;102352.91;5013497;28;20033;-52
2022/01/01 09:31:44;;;;;;;29.13;9.10;;;;;;;11.48;100.00;102339.66;5012936;28;20468;-47
2022/01/01 09:34:09;;;;;;;29.77;9.43;;;;;;;11.47;100.00;102338.81;5013342;28;20165;-52
2022/01/01 09:36:37;;;;;;;24.42;8.55;;;;;;;11.47;100.00;102335.25;5011152;28;20104;-51
2022/01/01 09:39:03;;;;;;;25.23;8.43;;;;;;;11.48;100.00;102345.84;5014018;28;20390;-52
2022/01/01 09:41:29;;;;;;;27.63;9.35;;;;;;;11.46;100.00;102339.78;4986591;28;20053;-46
2022/01/01 09:43:55;;;;;;;25.27;10.20;;;;;;;11.47;100.00;102337.94;5004918;28;20056;-45
2022/01/01 09:46:21;;;;;;;29.98;9.40;;;;;;;11.49;100.00;102335.97;5003276;28;20037;-47
2022/01/01 09:48:46;;;;;;;26.25;9.18;;;;;;;11.45;100.00;102335.41;5003932;28;20076;-47
2022/01/01 09:51:12;;;;;;;22.25;8.98;;;;;;;11.45;100.00;102342.59;5003873;28;20587;-48
2022/01/01 09:53:37;;;;;;;24.90;9.52;;;;;;;11.43;100.00;102339.19;5003258;28;20036;-47
2022/01/01 09:56:04;;;;;;;27.35;10.05;;;;;;;11.43;100.00;102344.53;5004197;28;20535;-48
2022/01/01 09:58:32;;;;;;;31.02;10.55;;;;;;;11.41;100.00;102331.28;5003584;28;20129;-48
2022/01/01 10:00:58;;;;;;;28.70;10.13;;;;;;;11.42;100.00;102338.31;5003296;28;20053;-50
2022/01/01 10:03:34;;;;;;;26.77;9.45;;;;;;;11.44;100.00;102344.41;5004093;28;20100;-48
2022/01/01 10:06:01;;;;;;;26.55;9.02;;;;;;;11.46;100.00;102339.78;5003343;28;20017;-48
2022/01/01 10:08:27;;;;;;;30.88;9.55;;;;;;;11.41;100.00;102331.28;5002935;28;20061;-47
2022/01/01 10:10:53;;;;;;;23.13;9.80;;;;;;;11.47;100.00;102316.53;5004120;28;20117;-48
2022/01/01 10:13:29;;;;;;;23.05;9.20;;;;;;;11.50;100.00;102311.78;5003417;28;20085;-49
2022/01/01 10:15:55;;;;;;;27.63;9.95;;;;;;;11.52;100.00;102309.84;5003211;28;20575;-47
2022/01/01 10:18:25;;;;;;;25.50;9.80;;;;;;;11.56;100.00;102305.06;5003158;28;20058;-47
2022/01/01 10:20:55;;;;;;;28.50;9.93;;;;;;;11.57;100.00;102299.59;5009696;28;20029;-51
2022/01/01 10:23:26;;;;;;;27.58;11.07;;;;;;;11.60;100.00;102300.28;5006017;28;20037;-49
2022/01/01 10:28:35;;;;;;;27.15;10.93;;;;;;;11.61;100.00;102305.53;5020622;28;20184;-45
2022/01/01 10:31:06;;;;;;;31.42;10.57;;;;;;;11.61;100.00;102299.28;5006596;28;20078;-49
2022/01/01 10:33:32;;;;;;;34.38;11.20;;;;;;;11.65;100.00;102298.06;5003218;28;20053;-46
2022/01/01 10:35:57;;;;;;;33.13;10.52;;;;;;;11.67;100.00;102291.59;5003317;28;20030;-47
2022/01/01 10:38:26;;;;;;;26.08;10.20;;;;;;;11.70;100.00;102293.16;5002634;28;20022;-49
2022/01/01 10:41:09;;;;;;;26.92;11.10;;;;;;;11.81;100.00;102286.88;5003423;28;20301;-45
2022/01/01 10:43:39;;;;;;;28.17;10.45;;;;;;;11.85;100.00;102282.97;4984881;28;20060;-47
2022/01/01 10:46:05;;;;;;;26.60;10.40;;;;;;;11.91;100.00;102269.94;5002505;28;20020;-49
2022/01/01 10:51:04;;;;;;;29.42;11.15;;;;;;;11.97;100.00;102262.34;5008884;28;20037;-46
2022/01/01 10:53:30;;;;;;;27.98;9.55;;;;;;;12.01;100.00;102261.06;5021872;28;20072;-45
2022/01/01 10:55:59;;;;;;;28.48;9.98;;;;;;;11.96;100.00;102265.97;5023182;28;20706;-49
2022/01/01 10:58:28;;;;;;;25.92;9.98;;;;;;;11.98;100.00;102266.69;5023084;28;20029;-46
2022/01/01 11:01:13;;;;;;;23.05;10.43;;;;;;;12.01;100.00;102267.25;5022323;28;20052;-47
2022/01/01 11:03:41;;;;;;;26.50;9.98;;;;;;;12.01;100.00;102266.41;5021564;28;20561;-47
2022/01/01 11:06:10;;;;;;;23.88;10.10;;;;;;;12.02;100.00;102268.13;5022511;28;20116;-50